Hong Kong International Airport
VHHH : now visible

Airfield :











YOU CAN JOIN US ON...

 
LOGIN :

Register | Disclaimer

   EN    FR    IT 

 









Legend :    VFR   Marginal VFR   IFR   Intensive IFR   Very Intensive IFR
Visi :
Ceiling :
>= 8 km
>= 3000ft
5 to 8 km
1000 to 3000 ft
1500m to 5 km
500 to 1000 ft
800 to 1500m
200 to 500 ft
< 800m
< 200 ft
Symbols :   Thunderstorms  Fog  Heavy snow  Heavy precipitations  Wind > 20 kt






- Airport Elevation : 28 ft
- IATA code : HKG


VHHH - Hong Kong International

CURRENT METAR :
  • 180800Z 31005KT 270V360 9999 FEW028 20/11 Q1018 NOSIG

EXPIRED METARs :
  • 180730Z 32005KT 260V010 9999 FEW028 20/11 Q1018 NOSIG
  • 180700Z 31007KT 290V360 9999 FEW030 20/11 Q1018 NOSIG
  • 180630Z 31007KT 270V340 9999 FEW030 20/11 Q1018 NOSIG
  • 180600Z 30008KT 9999 FEW030 20/10 Q1018 NOSIG
  • 180530Z 31009KT 9999 FEW030 19/11 Q1018 NOSIG

TAF TAF VHHH
Valid from the 18 at 06:00 until the 19 at 12:00 UTC


180500Z 1806/1912 30010KT 9999 FEW030 TX21/1806Z TX22/1906Z TN18/1823Z
BECMG 1808/1810 08010KT
BECMG 1903/1905 28010KT
BECMG 1909/1911 11005KT



MET'MAP, your aeronautical weather chart ! - Copyright ORBIFLY December 2007 - Disclaimer

ORBIFLY MET'MAP TEAM :

Programming & Development : Alexandra Zaïnal
Concept & original design : Baudouin d'Aumeries
Assistance for programming : Marc-Olivier Méhu
Technical & hardware support : Manuel Goepfert

Contact : metmap@orbifly.com




SOURCES & CREDITS :

   NOAA       Earth
Advisory